Terminal Aerodrome Forecast
Issued by NWS

Home | Current Version | Previous Version | Text Only | Print | Product List | Glossary On
Versions: 1 2 3 4 5 6 7 8 9 10 11
952
FTUS43 KGRB 252340
TAFAUW
TAF
KAUW 252340Z 2600/2624 15006KT P6SM -SHRA OVC080
     FM260300 10009KT P6SM -SHRA OVC040
      TEMPO 2604/2606 5SM SHRA BR OVC025
     FM260600 13011KT 3SM SHRA OVC015
      TEMPO 2610/2614 BKN007
     FM261400 17009KT 5SM -SHRA OVC007
     FM261700 21008KT 6SM -SHRA OVC011
     FM262100 27008KT P6SM OVC015=

USA.gov is the U.S. government's official web portal to all federal, state and local government web resources and services.